Time;durP1;ratioP1;P1;durP2;ratioP2;P2;SDS_P1;SDS_P2;PMS_P1;PMS_P2;Temp;Humidity;BMP_temperature;BMP_pressure;BME280_temperature;BME280_humidity;BME280_pressure;Samples;Min_cycle;Max_cycle;Signal;HPM_P1;HPM_P2
2022/12/25 00:00:32;;;;;;;11.25;3.42;;;;;;;7.29;98.62;101386.69;5027820;28;20534;-80
2022/12/25 00:02:57;;;;;;;13.25;3.42;;;;;;;7.31;98.76;101389.25;5031606;28;20021;-81
2022/12/25 00:05:22;;;;;;;11.63;3.28;;;;;;;7.32;98.60;101384.09;5029666;28;20032;-81
2022/12/25 00:07:48;;;;;;;11.43;3.20;;;;;;;7.34;98.69;101378.88;5033596;28;20025;-81
2022/12/25 00:10:13;;;;;;;12.88;3.60;;;;;;;7.35;98.86;101368.50;5023802;28;20033;-80
2022/12/25 00:12:39;;;;;;;10.35;2.88;;;;;;;7.37;98.73;101363.34;5021765;28;20477;-81
2022/12/25 00:15:04;;;;;;;13.38;3.25;;;;;;;7.38;98.80;101362.50;5028317;28;20072;-81
2022/12/25 00:17:30;;;;;;;11.38;3.20;;;;;;;7.39;98.83;101370.22;5017600;28;20049;-80
2022/12/25 00:19:55;;;;;;;10.00;3.20;;;;;;;7.40;98.45;101374.53;5024303;28;20049;-81
2022/12/25 00:22:20;;;;;;;8.38;3.15;;;;;;;7.40;98.69;101369.38;5020512;28;20113;-81
2022/12/25 00:24:46;;;;;;;10.75;2.97;;;;;;;7.42;98.87;101369.38;5026340;28;20033;-81
2022/12/25 00:27:12;;;;;;;10.75;3.00;;;;;;;7.46;99.22;101375.41;5033273;28;20033;-81
2022/12/25 00:29:37;;;;;;;10.50;3.40;;;;;;;7.47;98.95;101369.34;5029612;28;20026;-79
2022/12/25 00:32:02;;;;;;;11.32;3.40;;;;;;;7.48;99.03;101368.50;5030651;28;20021;-79
2022/12/25 00:34:28;;;;;;;11.35;3.05;;;;;;;7.48;99.05;101373.66;5027800;28;20049;-77
2022/12/25 00:36:53;;;;;;;10.05;2.83;;;;;;;7.49;98.97;101362.44;5023440;28;20477;-79
2022/12/25 00:39:18;;;;;;;11.73;3.55;;;;;;;7.50;99.24;101361.59;5029386;28;20041;-79
2022/12/25 00:44:27;;;;;;;11.65;3.22;;;;;;;7.52;99.27;101360.69;5019090;28;20433;-79
2022/12/25 00:46:53;;;;;;;8.52;2.92;;;;;;;7.53;99.18;101361.53;5021497;28;20026;-78
2022/12/25 00:49:21;;;;;;;10.32;3.35;;;;;;;7.54;99.06;101358.09;5019236;28;20033;-78
2022/12/25 00:51:47;;;;;;;11.85;3.45;;;;;;;7.53;99.32;101349.47;5033636;28;20488;-78
2022/12/25 00:54:13;;;;;;;10.55;3.67;;;;;;;7.53;99.35;101346.00;5033231;28;20503;-78
2022/12/25 00:56:38;;;;;;;8.43;3.20;;;;;;;7.53;99.59;101352.06;5023189;28;20037;-79
2022/12/25 00:59:04;;;;;;;8.88;3.28;;;;;;;7.55;99.80;101359.81;5015262;28;20151;-79
2022/12/25 01:01:29;;;;;;;10.13;3.42;;;;;;;7.55;99.86;101359.81;5014762;28;20451;-79
2022/12/25 01:03:55;;;;;;;10.30;3.10;;;;;;;7.55;99.94;101354.63;5021239;28;20028;-79
2022/12/25 01:06:20;;;;;;;11.75;3.45;;;;;;;7.55;100.00;101346.88;5030130;28;20041;-78
2022/12/25 01:11:29;;;;;;;12.70;3.30;;;;;;;7.55;100.00;101344.28;5031544;28;20404;-79
2022/12/25 01:13:55;;;;;;;9.15;3.30;;;;;;;7.57;100.00;101342.53;5013271;28;20026;-79
2022/12/25 01:16:20;;;;;;;9.90;2.95;;;;;;;7.55;100.00;101341.69;5021402;28;20025;-79
2022/12/25 01:18:45;;;;;;;10.32;3.35;;;;;;;7.56;100.00;101336.50;5031454;28;20041;-79
2022/12/25 01:21:16;;;;;;;8.80;3.20;;;;;;;7.56;100.00;101335.63;5018752;28;20058;-79
2022/12/25 01:23:43;;;;;;;9.30;3.60;;;;;;;7.53;100.00;101333.94;5018241;28;20036;-79
2022/12/25 01:26:10;;;;;;;8.40;3.17;;;;;;;7.53;100.00;101330.47;5014108;28;20461;-79
2022/12/25 01:28:36;;;;;;;10.35;3.30;;;;;;;7.53;100.00;101335.66;5014147;28;20041;-79
2022/12/25 01:31:02;;;;;;;8.57;3.13;;;;;;;7.52;100.00;101346.88;5023677;28;20029;-79
2022/12/25 01:33:28;;;;;;;7.15;3.30;;;;;;;7.52;100.00;101349.47;5032650;28;20484;-79
2022/12/25 01:35:53;;;;;;;9.40;3.13;;;;;;;7.52;100.00;101359.81;5032801;28;20025;-79
2022/12/25 01:38:20;;;;;;;8.30;3.55;;;;;;;7.52;100.00;101365.00;5032310;28;20034;-79
2022/12/25 01:40:45;;;;;;;9.52;3.90;;;;;;;7.52;100.00;101363.28;5032617;28;20033;-79
2022/12/25 01:43:25;;;;;;;11.98;3.92;;;;;;;7.54;100.00;101365.84;5031710;28;20392;-79
2022/12/25 01:45:51;;;;;;;10.13;3.88;;;;;;;7.55;100.00;101362.41;5030513;28;20052;-79
2022/12/25 01:48:23;;;;;;;8.15;3.47;;;;;;;7.54;100.00;101350.31;5032687;28;20068;-79
2022/12/25 01:50:54;;;;;;;7.85;3.35;;;;;;;7.56;100.00;101361.53;5033341;28;20033;-79
2022/12/25 01:53:20;;;;;;;8.27;3.08;;;;;;;7.57;100.00;101358.06;5032610;28;20056;-79
2022/12/25 01:55:48;;;;;;;8.35;3.05;;;;;;;7.56;100.00;101362.41;5031385;28;20056;-79
2022/12/25 01:58:14;;;;;;;9.73;3.20;;;;;;;7.58;100.00;101370.16;5030402;28;20037;-79
2022/12/25 02:00:40;;;;;;;10.25;2.80;;;;;;;7.60;100.00;101371.00;5032978;28;20028;-79
2022/12/25 02:03:05;;;;;;;9.15;3.25;;;;;;;7.60;100.00;101373.59;5032536;28;20025;-79
2022/12/25 02:05:33;;;;;;;11.02;3.03;;;;;;;7.62;100.00;101381.34;5032845;28;20481;-79
2022/12/25 02:08:05;;;;;;;8.18;3.10;;;;;;;7.63;100.00;101383.06;5031671;28;20021;-79
2022/12/25 02:10:31;;;;;;;9.60;3.28;;;;;;;7.63;100.00;101377.88;5033057;28;20025;-79
2022/12/25 02:12:56;;;;;;;10.73;3.08;;;;;;;7.65;100.00;101376.16;5032339;28;20009;-79
2022/12/25 02:15:28;;;;;;;8.50;2.78;;;;;;;7.65;100.00;101377.03;5032825;28;20435;-79
2022/12/25 02:18:01;;;;;;;6.15;2.90;;;;;;;7.66;100.00;101383.94;5013409;28;20032;-79
2022/12/25 02:20:50;;;;;;;8.38;2.92;;;;;;;7.65;100.00;101376.16;5013103;28;20054;-79
2022/12/25 02:23:41;;;;;;;7.53;2.58;;;;;;;7.66;100.00;101383.06;5020830;28;20117;-79
2022/12/25 02:26:40;;;;;;;7.90;2.92;;;;;;;7.67;100.00;101384.78;5040746;28;20104;-79
2022/12/25 02:29:41;;;;;;;9.23;3.00;;;;;;;7.68;100.00;101387.38;5031250;28;20076;-79
2022/12/25 02:32:31;;;;;;;6.60;3.13;;;;;;;7.70;100.00;101380.44;5032969;28;20072;-79
2022/12/25 02:35:33;;;;;;;7.45;2.60;;;;;;;7.70;100.00;101390.81;5015338;28;20276;-79
2022/12/25 02:38:30;;;;;;;8.32;3.65;;;;;;;7.71;100.00;101387.34;5032993;28;20329;-79
2022/12/25 02:41:00;;;;;;;9.73;2.78;;;;;;;7.73;100.00;101380.44;5032190;28;20406;-79
2022/12/25 03:06:41;;;;;;;5.10;2.47;;;;;;;7.71;100.00;101338.13;5013179;28;20044;-79
2022/12/25 03:12:01;;;;;;;8.45;2.70;;;;;;;7.68;100.00;101321.78;5019846;28;20048;-79
2022/12/25 03:17:11;;;;;;;6.80;2.63;;;;;;;7.60;100.00;101295.91;5036721;28;20531;-79
2022/12/25 03:28:15;;;;;;;8.43;2.70;;;;;;;7.47;100.00;101281.34;5054266;28;20043;-79
2022/12/25 03:31:10;;;;;;;9.15;2.70;;;;;;;7.42;100.00;101266.69;5042458;28;20034;-79
2022/12/25 03:37:07;;;;;;;9.10;2.47;;;;;;;7.40;100.00;101270.16;5048595;28;20028;-79
2022/12/25 04:37:48;;;;;;;5.72;2.30;;;;;;;7.13;100.00;101259.94;5031581;28;20065;-79
2022/12/25 04:40:14;;;;;;;4.57;2.10;;;;;;;7.14;100.00;101261.66;5033148;28;20037;-79
2022/12/25 04:42:39;;;;;;;5.22;2.25;;;;;;;7.11;100.00;101266.84;5032280;28;20025;-79
2022/12/25 04:45:05;;;;;;;5.88;1.90;;;;;;;7.10;100.00;101270.28;5032173;28;20369;-79
2022/12/25 04:47:31;;;;;;;4.10;1.95;;;;;;;7.08;100.00;101272.03;5031442;28;20413;-79
2022/12/25 04:49:56;;;;;;;4.75;2.13;;;;;;;7.08;100.00;101276.34;5032152;28;20539;-79
2022/12/25 04:52:22;;;;;;;6.53;2.30;;;;;;;7.05;100.00;101272.03;5032398;28;20096;-79
2022/12/25 04:54:47;;;;;;;4.93;2.17;;;;;;;7.04;100.00;101275.47;5031751;28;20034;-79
2022/12/25 04:57:12;;;;;;;5.15;2.05;;;;;;;7.00;100.00;101273.81;5031517;28;20031;-79
2022/12/25 04:59:37;;;;;;;6.05;2.25;;;;;;;6.98;100.00;101265.19;5030532;28;20393;-79
2022/12/25 05:02:03;;;;;;;3.22;2.00;;;;;;;6.97;100.00;101258.28;5032206;28;20021;-79
2022/12/25 05:04:28;;;;;;;4.18;2.20;;;;;;;6.94;100.00;101258.28;5032844;28;20029;-79
2022/12/25 05:06:53;;;;;;;3.33;1.90;;;;;;;6.92;100.00;101257.44;5031351;28;20028;-79
2022/12/25 05:09:19;;;;;;;4.28;2.00;;;;;;;6.91;100.00;101266.94;5032529;28;20380;-79
2022/12/25 05:11:44;;;;;;;5.40;1.98;;;;;;;6.88;100.00;101253.13;5032418;28;20495;-79
2022/12/25 05:14:09;;;;;;;6.35;2.17;;;;;;;6.87;100.00;101260.03;5031623;28;20044;-79
2022/12/25 05:16:34;;;;;;;3.40;1.90;;;;;;;6.84;100.00;101253.13;5032293;28;20025;-79
2022/12/25 05:19:00;;;;;;;4.22;2.15;;;;;;;6.84;100.00;101252.28;5031747;28;20400;-79
2022/12/25 05:21:25;;;;;;;6.65;1.80;;;;;;;6.83;100.00;101250.56;5031909;28;20033;-79
2022/12/25 05:23:51;;;;;;;4.55;2.00;;;;;;;6.84;100.00;101239.34;5032233;28;20056;-79
2022/12/25 05:26:19;;;;;;;5.75;2.22;;;;;;;6.83;100.00;101240.22;5031195;28;20083;-79
2022/12/25 05:28:45;;;;;;;5.97;1.80;;;;;;;6.84;100.00;101250.56;5033935;28;20043;-79
2022/12/25 05:31:11;;;;;;;4.07;1.88;;;;;;;6.87;100.00;101251.41;5033982;28;20453;-79
2022/12/25 05:33:36;;;;;;;3.97;2.05;;;;;;;6.91;100.00;101242.78;5017162;28;20461;-79
2022/12/25 05:36:07;;;;;;;5.32;1.83;;;;;;;6.92;100.00;101236.75;5029422;28;20492;-79
2022/12/25 05:38:32;;;;;;;4.75;2.05;;;;;;;6.96;100.00;101235.88;5031984;28;20025;-79
2022/12/25 05:40:57;;;;;;;4.95;2.00;;;;;;;6.99;100.00;101230.69;5033524;28;20021;-79
2022/12/25 05:43:23;;;;;;;4.82;2.10;;;;;;;7.03;100.00;101224.59;5032778;28;20025;-79
2022/12/25 05:45:49;;;;;;;3.17;1.83;;;;;;;7.06;100.00;101219.44;5031949;28;20025;-79
2022/12/25 05:48:14;;;;;;;2.75;1.63;;;;;;;7.09;100.00;101222.00;5033625;28;20029;-78
2022/12/25 05:50:40;;;;;;;5.85;2.00;;;;;;;7.13;100.00;101225.44;5033552;28;20032;-79
2022/12/25 05:53:06;;;;;;;4.07;2.05;;;;;;;7.13;100.00;101234.06;5033087;28;20366;-78
2022/12/25 05:55:33;;;;;;;3.75;2.10;;;;;;;7.16;100.00;101222.81;5032413;28;20030;-79
2022/12/25 05:57:59;;;;;;;4.75;1.90;;;;;;;7.19;100.00;101228.00;5032204;28;20026;-79
2022/12/25 06:00:24;;;;;;;4.07;1.83;;;;;;;7.21;100.00;101233.16;5032981;28;20036;-78
2022/12/25 06:02:49;;;;;;;4.70;1.83;;;;;;;7.23;100.00;101234.00;5043075;28;20463;-79
2022/12/25 06:05:15;;;;;;;3.55;1.70;;;;;;;7.25;100.00;101222.78;5045262;28;20108;-79
2022/12/25 06:07:40;;;;;;;6.15;2.38;;;;;;;7.26;100.00;101218.47;5042767;28;20083;-79
2022/12/25 06:10:06;;;;;;;6.57;1.95;;;;;;;7.28;100.00;101211.56;5032161;28;20032;-79
2022/12/25 06:12:31;;;;;;;4.60;1.92;;;;;;;7.30;100.00;101204.63;5032887;28;20461;-79
2022/12/25 06:14:56;;;;;;;3.63;1.77;;;;;;;7.31;100.00;101201.19;5031959;28;20472;-79
2022/12/25 06:17:24;;;;;;;4.93;2.00;;;;;;;7.34;100.00;101208.94;5031462;28;20021;-79
2022/12/25 06:19:49;;;;;;;5.13;1.90;;;;;;;7.35;100.00;101208.03;5014394;28;20082;-79
2022/12/25 06:22:15;;;;;;;4.05;1.85;;;;;;;7.36;100.00;101207.16;5032346;28;20064;-78
2022/12/25 06:24:40;;;;;;;4.13;2.00;;;;;;;7.37;100.00;101198.53;5031915;28;20060;-78
2022/12/25 06:27:05;;;;;;;4.40;2.10;;;;;;;7.38;100.00;101189.91;5032280;28;20039;-79
2022/12/25 06:29:30;;;;;;;5.20;1.90;;;;;;;7.41;100.00;101178.69;5031271;28;20472;-79
2022/12/25 06:31:56;;;;;;;4.88;2.00;;;;;;;7.43;100.00;101174.34;5032711;28;20025;-79
2022/12/25 06:34:22;;;;;;;3.72;1.60;;;;;;;7.44;100.00;101178.66;5032076;28;20029;-79
2022/12/25 06:36:47;;;;;;;5.00;1.92;;;;;;;7.46;100.00;101191.59;5032204;28;20025;-79
2022/12/25 06:39:12;;;;;;;4.18;1.77;;;;;;;7.48;100.00;101187.28;5031642;28;20033;-78
2022/12/25 06:41:37;;;;;;;5.10;2.00;;;;;;;7.48;100.00;101171.75;5032493;28;20022;-79
2022/12/25 06:44:03;;;;;;;3.67;1.90;;;;;;;7.49;100.00;101169.13;5032253;28;20404;-79
2022/12/25 06:46:29;;;;;;;3.78;2.00;;;;;;;7.49;100.00;101153.59;5030944;28;20388;-79
2022/12/25 06:48:56;;;;;;;4.38;2.10;;;;;;;7.49;100.00;101151.00;5030745;28;20033;-79
2022/12/25 06:51:24;;;;;;;3.30;1.83;;;;;;;7.51;100.00;101143.25;5032267;28;20063;-79
2022/12/25 06:53:50;;;;;;;5.20;2.00;;;;;;;7.52;100.00;101147.50;5032426;28;20396;-79
2022/12/25 06:56:18;;;;;;;4.32;1.90;;;;;;;7.52;100.00;101148.41;5031609;28;20044;-79
2022/12/25 06:58:46;;;;;;;5.57;2.05;;;;;;;7.52;100.00;101143.22;5031896;28;20021;-79
2022/12/25 07:01:19;;;;;;;5.30;2.08;;;;;;;7.55;100.00;101137.13;5031234;28;20034;-79
2022/12/25 07:03:47;;;;;;;6.38;2.20;;;;;;;7.53;100.00;101119.03;5029670;28;20103;-79
2022/12/25 07:06:12;;;;;;;5.72;2.10;;;;;;;7.54;100.00;101114.72;5032587;28;20037;-79
2022/12/25 07:08:38;;;;;;;4.78;2.17;;;;;;;7.55;100.00;101119.91;5032028;28;20092;-79
2022/12/25 07:11:03;;;;;;;4.60;2.50;;;;;;;7.56;100.00;101125.91;5031805;28;20461;-79
2022/12/25 07:13:28;;;;;;;4.75;2.15;;;;;;;7.57;100.00;101125.03;5029884;28;20037;-79
2022/12/25 07:15:58;;;;;;;4.18;2.20;;;;;;;7.57;100.00;101127.63;5032438;28;20033;-79
2022/12/25 07:18:23;;;;;;;5.35;2.50;;;;;;;7.58;100.00;101129.34;5030847;28;20068;-79
2022/12/25 07:20:49;;;;;;;5.18;2.40;;;;;;;7.58;100.00;101135.41;5032633;28;20061;-79
2022/12/25 07:23:14;;;;;;;4.55;2.47;;;;;;;7.59;100.00;101142.31;5032471;28;20044;-78
2022/12/25 07:25:39;;;;;;;6.25;2.40;;;;;;;7.59;100.00;101144.03;5030736;28;20025;-79
2022/12/25 07:28:05;;;;;;;7.82;2.58;;;;;;;7.61;100.00;101147.47;5046897;28;20044;-79
2022/12/25 07:30:30;;;;;;;6.50;2.50;;;;;;;7.63;100.00;101153.47;5035705;28;20547;-78
2022/12/25 07:32:56;;;;;;;5.05;2.55;;;;;;;7.64;100.00;101159.50;5030592;28;20024;-79
2022/12/25 07:35:21;;;;;;;7.13;2.70;;;;;;;7.65;100.00;101159.50;5024154;28;20501;-79
2022/12/25 07:37:46;;;;;;;4.82;2.50;;;;;;;7.66;100.00;101171.59;5028640;28;20115;-79
2022/12/25 07:40:12;;;;;;;3.95;2.40;;;;;;;7.67;100.00;101165.53;5031443;28;20059;-79
2022/12/25 07:42:37;;;;;;;5.15;2.45;;;;;;;7.67;100.00;101168.13;5030056;28;20087;-79
2022/12/25 07:45:03;;;;;;;4.22;2.30;;;;;;;7.69;100.00;101170.69;5032127;28;20052;-79
2022/12/25 07:47:28;;;;;;;5.65;2.30;;;;;;;7.70;100.00;101167.25;5031921;28;20251;-79
2022/12/25 07:49:53;;;;;;;5.30;2.50;;;;;;;7.70;100.00;101130.97;5031993;28;20204;-79
2022/12/25 07:52:19;;;;;;;7.30;2.45;;;;;;;7.69;100.00;101113.72;5031003;28;20033;-79
2022/12/25 07:54:44;;;;;;;5.93;2.60;;;;;;;7.69;100.00;101119.75;5031985;28;20104;-79
2022/12/25 07:57:09;;;;;;;8.15;2.55;;;;;;;7.69;100.00;101131.84;5034023;28;20079;-79
2022/12/25 07:59:34;;;;;;;4.90;2.58;;;;;;;7.68;100.00;101133.59;5035777;28;20036;-79
2022/12/25 08:02:00;;;;;;;6.72;2.60;;;;;;;7.68;100.00;101153.44;5034378;28;20029;-79
2022/12/25 08:04:25;;;;;;;5.60;2.50;;;;;;;7.69;100.00;101176.72;5034689;28;20057;-78
2022/12/25 08:06:50;;;;;;;6.90;2.70;;;;;;;7.68;100.00;101190.56;5035518;28;20388;-79
2022/12/25 08:09:15;;;;;;;4.53;2.92;;;;;;;7.70;100.00;101188.78;5033112;28;20152;-81
2022/12/25 08:11:47;;;;;;;6.05;2.92;;;;;;;7.72;100.00;101186.22;5033924;28;20033;-81
2022/12/25 08:14:13;;;;;;;4.68;2.63;;;;;;;7.71;100.00;101187.94;5034262;28;20033;-79
2022/12/25 08:16:40;;;;;;;5.30;2.92;;;;;;;7.70;100.00;101178.44;5027442;28;20033;-79
2022/12/25 08:19:09;;;;;;;5.57;2.47;;;;;;;7.70;100.00;101188.78;5026857;28;20079;-79
2022/12/25 08:21:34;;;;;;;5.43;2.70;;;;;;;7.70;100.00;101186.22;5026992;28;20037;-79
2022/12/25 08:24:01;;;;;;;7.13;2.40;;;;;;;7.71;100.00;101207.81;5029043;28;20026;-78
2022/12/25 08:26:26;;;;;;;6.47;2.72;;;;;;;7.72;100.00;101218.13;5026008;28;20045;-78
2022/12/25 08:28:51;;;;;;;4.82;2.42;;;;;;;7.71;100.00;101203.47;5028885;28;20124;-78
2022/12/25 08:31:20;;;;;;;6.53;2.70;;;;;;;7.72;100.00;101191.41;5028566;28;20045;-79
2022/12/25 08:33:46;;;;;;;5.20;2.45;;;;;;;7.73;100.00;101183.59;5027874;28;20057;-79
2022/12/25 08:36:12;;;;;;;6.30;2.53;;;;;;;7.73;100.00;101188.78;5027896;28;20037;-79
2022/12/25 08:38:38;;;;;;;6.32;2.58;;;;;;;7.73;100.00;101188.78;5028903;28;20029;-78
2022/12/25 08:41:04;;;;;;;5.63;2.45;;;;;;;7.74;100.00;101182.72;5027548;28;20036;-78
2022/12/25 08:43:29;;;;;;;4.82;2.33;;;;;;;7.73;100.00;101183.59;5028431;28;20396;-78
2022/12/25 08:45:54;;;;;;;5.13;2.33;;;;;;;7.75;100.00;101189.63;5028243;28;20125;-79
2022/12/25 08:48:20;;;;;;;5.32;2.40;;;;;;;7.77;100.00;101194.78;5028658;28;20031;-78
2022/12/25 08:50:46;;;;;;;5.05;2.20;;;;;;;7.78;100.00;101201.69;5026913;28;20481;-78
2022/12/25 08:53:13;;;;;;;3.97;2.28;;;;;;;7.79;100.00;101199.97;5027197;28;20040;-79
2022/12/25 08:55:38;;;;;;;5.43;2.10;;;;;;;7.80;100.00;101193.91;5027647;28;20064;-78
2022/12/25 08:58:03;;;;;;;4.85;2.35;;;;;;;7.80;100.00;101193.91;5028533;28;20065;-78
2022/12/25 09:00:28;;;;;;;4.57;2.40;;;;;;;7.78;100.00;101191.31;5027061;28;20022;-78
2022/12/25 09:02:54;;;;;;;4.00;2.50;;;;;;;7.79;100.00;101192.19;5024451;28;20370;-78
2022/12/25 09:05:19;;;;;;;5.00;2.30;;;;;;;7.80;100.00;101180.97;5027615;28;20037;-78
2022/12/25 09:07:44;;;;;;;4.68;2.10;;;;;;;7.81;100.00;101185.28;5027659;28;20033;-78
2022/12/25 09:10:10;;;;;;;3.88;2.08;;;;;;;7.80;100.00;101174.03;5028145;28;20160;-79
2022/12/25 09:12:35;;;;;;;5.55;2.20;;;;;;;7.81;100.00;101174.91;5027245;28;20487;-78
2022/12/25 09:15:00;;;;;;;6.78;2.20;;;;;;;7.82;100.00;101163.69;5026941;28;20083;-79
2022/12/25 09:17:26;;;;;;;3.97;2.13;;;;;;;7.82;100.00;101161.09;5027326;28;20518;-79
2022/12/25 09:19:51;;;;;;;5.15;2.28;;;;;;;7.83;100.00;101168.00;5027839;28;20495;-79
2022/12/25 09:22:16;;;;;;;6.25;2.28;;;;;;;7.85;100.00;101186.97;5026373;28;20026;-78
2022/12/25 09:24:42;;;;;;;6.47;2.40;;;;;;;7.84;100.00;101182.66;5026699;28;20480;-78
2022/12/25 09:27:08;;;;;;;5.35;2.08;;;;;;;7.86;100.00;101192.13;5027796;28;20033;-78
2022/12/25 09:29:33;;;;;;;4.72;2.17;;;;;;;7.91;100.00;101189.50;5027454;28;20036;-78
2022/12/25 09:31:58;;;;;;;5.85;1.92;;;;;;;7.92;100.00;101182.59;5026607;28;20485;-78
2022/12/25 09:34:23;;;;;;;5.20;2.10;;;;;;;7.94;100.00;101186.88;5027443;28;20524;-78
2022/12/25 09:36:49;;;;;;;3.30;1.88;;;;;;;7.94;100.00;101186.88;5025945;28;20032;-78
2022/12/25 09:39:14;;;;;;;5.15;1.98;;;;;;;7.95;100.00;101175.66;5027517;28;20466;-78
2022/12/25 09:41:55;;;;;;;4.95;2.50;;;;;;;7.96;100.00;101185.13;5026089;28;20488;-78
2022/12/25 09:44:24;;;;;;;5.60;2.43;;;;;;;7.96;100.00;101174.78;5026846;28;20029;-78
2022/12/25 09:46:54;;;;;;;5.90;2.38;;;;;;;7.96;100.00;101153.16;5026029;28;20117;-78
2022/12/25 09:49:36;;;;;;;5.68;2.15;;;;;;;7.95;100.00;101143.69;5026955;28;20077;-78
2022/12/25 09:52:14;;;;;;;4.93;2.42;;;;;;;7.94;100.00;101154.94;5026275;28;20417;-79
2022/12/25 09:55:13;;;;;;;3.97;2.00;;;;;;;7.95;100.00;101160.09;5026332;28;20536;-77
2022/12/25 09:57:39;;;;;;;3.65;1.95;;;;;;;7.95;100.00;101157.50;5018154;28;20037;-77
2022/12/25 10:00:14;;;;;;;4.97;2.20;;;;;;;7.95;100.00;101141.97;5026884;28;20026;-78
2022/12/25 10:02:58;;;;;;;5.35;2.25;;;;;;;7.97;100.00;101147.13;5026369;28;20068;-78
2022/12/25 10:05:26;;;;;;;3.75;2.20;;;;;;;7.98;100.00;101139.34;5025158;28;20048;-78
2022/12/25 10:07:59;;;;;;;4.55;2.08;;;;;;;7.99;100.00;101138.47;5026652;28;20025;-81
2022/12/25 10:10:26;;;;;;;4.75;2.53;;;;;;;7.99;100.00;101133.28;5026987;28;20025;-80
2022/12/25 10:12:55;;;;;;;4.72;2.38;;;;;;;8.00;100.00;101124.66;5025483;28;20029;-78
2022/12/25 10:15:35;;;;;;;4.50;2.30;;;;;;;8.00;100.00;101140.19;5024316;28;20040;-79
2022/12/25 10:18:24;;;;;;;3.00;2.00;;;;;;;8.00;100.00;101129.84;5025593;28;20061;-79
2022/12/25 10:20:54;;;;;;;3.70;2.17;;;;;;;8.01;100.00;101116.00;5026584;28;20055;-78
2022/12/25 10:23:34;;;;;;;4.38;2.30;;;;;;;8.01;100.00;101122.91;5026955;28;20079;-79
2022/12/25 10:26:00;;;;;;;5.57;2.22;;;;;;;8.04;100.00;101121.13;5025258;28;20029;-79
2022/12/25 10:28:37;;;;;;;4.38;2.30;;;;;;;8.07;100.00;101119.38;5026853;28;21440;-79
2022/12/25 10:31:22;;;;;;;4.78;2.60;;;;;;;8.08;100.00;101123.69;5026834;28;20116;-79
2022/12/25 10:33:50;;;;;;;3.70;2.30;;;;;;;8.09;100.00;101110.75;5026440;28;20108;-79
2022/12/25 10:36:24;;;;;;;5.95;2.28;;;;;;;8.09;100.00;101107.28;5024646;28;20028;-79
2022/12/25 10:38:51;;;;;;;4.28;2.30;;;;;;;8.09;100.00;101110.75;5024955;28;20538;-87
2022/12/25 10:41:33;;;;;;;4.07;2.20;;;;;;;8.07;100.00;101103.84;5023915;28;20029;-79
2022/12/25 10:43:58;;;;;;;4.53;2.50;;;;;;;8.05;100.00;101102.13;5037198;28;20846;-78
2022/12/25 10:46:26;;;;;;;4.07;2.35;;;;;;;8.07;100.00;101111.59;5023059;28;20026;-79
2022/12/25 10:48:59;;;;;;;4.32;2.35;;;;;;;8.05;100.00;101116.81;5022183;28;20025;-78
2022/12/25 10:51:45;;;;;;;4.25;2.50;;;;;;;8.05;100.00;101106.47;5023732;28;20729;-79
2022/12/25 10:54:32;;;;;;;4.53;2.45;;;;;;;8.03;100.00;101103.03;5025123;28;20036;-78
2022/12/25 10:57:08;;;;;;;4.50;2.35;;;;;;;8.02;100.00;101097.00;5023242;28;20536;-78
2022/12/25 10:59:40;;;;;;;4.35;2.30;;;;;;;8.04;100.00;101079.66;5025672;28;20029;-79
2022/12/25 11:02:24;;;;;;;3.45;2.40;;;;;;;8.06;100.00;101058.94;5024463;28;20028;-79
2022/12/25 11:04:56;;;;;;;4.80;2.60;;;;;;;8.07;100.00;101052.00;5039203;28;20033;-78
2022/12/25 11:07:24;;;;;;;3.80;2.28;;;;;;;8.09;100.00;101050.25;5025170;28;20376;-78
2022/12/25 11:09:54;;;;;;;5.75;2.63;;;;;;;8.10;100.00;101057.16;5024649;28;20029;-79
2022/12/25 11:12:25;;;;;;;4.45;2.45;;;;;;;8.11;100.00;101058.88;5024229;28;20034;-78
2022/12/25 11:14:52;;;;;;;7.68;2.70;;;;;;;8.11;100.00;101061.47;5023780;28;20030;-78
2022/12/25 11:17:22;;;;;;;3.67;2.47;;;;;;;8.11;100.00;101059.75;5024872;28;20134;-78
2022/12/25 11:19:55;;;;;;;4.70;2.55;;;;;;;8.12;100.00;101055.41;5024623;28;20131;-78
2022/12/25 11:22:21;;;;;;;4.03;2.40;;;;;;;8.14;100.00;101056.25;5022082;28;20464;-78
2022/12/25 11:24:46;;;;;;;3.45;2.40;;;;;;;8.14;100.00;101048.47;5023797;28;20071;-78
2022/12/25 11:27:24;;;;;;;3.65;2.17;;;;;;;8.17;100.00;101043.28;5023912;28;20025;-78
2022/12/25 11:29:55;;;;;;;3.47;2.30;;;;;;;8.16;100.00;101042.41;5024698;28;20473;-78
2022/12/25 11:32:54;;;;;;;5.90;2.40;;;;;;;8.20;100.00;101027.66;5027293;28;20125;-78
2022/12/25 11:35:21;;;;;;;6.00;2.58;;;;;;;8.19;100.00;101015.59;5020832;28;20124;-78
2022/12/25 11:37:52;;;;;;;7.10;2.67;;;;;;;8.20;100.00;101006.91;5028759;28;20029;-78
2022/12/25 11:40:26;;;;;;;6.32;2.65;;;;;;;8.18;100.00;101009.53;5028541;28;20037;-77
2022/12/25 11:42:53;;;;;;;4.70;2.78;;;;;;;8.19;100.00;101011.25;5026647;28;20029;-77
2022/12/25 11:45:26;;;;;;;5.07;2.90;;;;;;;8.19;100.00;101002.66;5029938;28;20033;-77
2022/12/25 11:47:58;;;;;;;5.05;2.97;;;;;;;8.19;100.00;101000.06;5029858;28;20031;-78
2022/12/25 11:50:34;;;;;;;6.45;3.13;;;;;;;8.16;100.00;100987.13;5029027;28;20093;-80
2022/12/25 11:53:04;;;;;;;8.25;3.13;;;;;;;8.16;100.00;101006.13;5029273;28;20116;-80
2022/12/25 11:55:37;;;;;;;6.05;3.13;;;;;;;8.14;100.00;100992.31;5026492;28;20507;-79
2022/12/25 11:58:15;;;;;;;7.53;3.33;;;;;;;8.12;100.00;100988.88;5027743;28;20025;-79
2022/12/25 12:00:43;;;;;;;7.53;3.58;;;;;;;8.13;100.00;100989.75;5026500;28;20041;-79
2022/12/25 12:03:34;;;;;;;5.80;3.38;;;;;;;8.14;100.00;100983.69;5027944;28;20036;-80
2022/12/25 12:06:23;;;;;;;6.25;3.28;;;;;;;8.13;100.00;100963.84;5029205;28;20044;-80
2022/12/25 12:08:54;;;;;;;6.05;3.30;;;;;;;8.11;100.00;100955.22;5029416;28;20037;-80
2022/12/25 12:11:46;;;;;;;5.80;3.35;;;;;;;8.09;100.00;100965.63;5027260;28;20427;-78
2022/12/25 12:14:30;;;;;;;5.40;3.50;;;;;;;8.11;100.00;100969.06;5029351;28;21291;-80
2022/12/25 12:16:55;;;;;;;8.93;3.83;;;;;;;8.10;100.00;100963.88;5026310;28;20091;-80
2022/12/25 12:19:27;;;;;;;7.80;3.92;;;;;;;8.08;100.00;100965.63;5024826;28;20416;-80
2022/12/25 12:21:55;;;;;;;6.18;3.95;;;;;;;8.09;100.00;100970.81;5024944;28;20026;-80
2022/12/25 12:24:23;;;;;;;5.80;3.63;;;;;;;8.10;100.00;100976.84;5027746;28;20041;-80
2022/12/25 12:27:01;;;;;;;5.63;3.80;;;;;;;8.11;100.00;100970.78;5023712;28;20381;-80
2022/12/25 12:29:35;;;;;;;6.28;3.78;;;;;;;8.11;100.00;100966.47;5023883;28;20022;-80
2022/12/25 12:32:03;;;;;;;6.47;3.80;;;;;;;8.12;100.00;100967.31;5022588;28;20729;-80
2022/12/25 12:34:41;;;;;;;5.63;3.50;;;;;;;8.12;100.00;100973.34;5027123;28;20033;-80
2022/12/25 12:37:32;;;;;;;6.47;3.67;;;;;;;8.12;100.00;100957.78;5025127;28;20104;-80
2022/12/25 12:39:58;;;;;;;6.13;3.50;;;;;;;8.13;100.00;100949.13;5024572;28;20710;-80
2022/12/25 12:42:27;;;;;;;5.78;3.60;;;;;;;8.13;100.00;100937.94;5024013;28;20642;-78
2022/12/25 12:44:55;;;;;;;7.22;3.70;;;;;;;8.15;100.00;100931.84;5025794;28;20052;-78
2022/12/25 12:47:30;;;;;;;7.28;4.60;;;;;;;8.18;100.00;100944.75;5026268;28;20064;-78
2022/12/25 12:50:00;;;;;;;12.90;8.07;;;;;;;8.20;100.00;100929.16;5026997;28;20033;-78
2022/12/25 12:52:35;;;;;;;12.70;9.05;;;;;;;8.23;100.00;100929.13;5024230;28;20387;-78
2022/12/25 12:55:06;;;;;;;14.15;9.27;;;;;;;8.25;100.00;100942.09;5024223;28;20114;-79
2022/12/25 12:57:38;;;;;;;12.55;8.38;;;;;;;8.26;100.00;100928.25;5026560;28;20025;-78
2022/12/25 13:00:05;;;;;;;;;;;;;;;8.27;100.00;100920.44;5026986;28;20034;-78
2022/12/25 13:03:01;;;;;;;8.77;6.05;;;;;;;8.25;100.00;100927.38;5024287;28;19932;-78
2022/12/25 13:05:44;;;;;;;12.77;9.75;;;;;;;8.25;100.00;100917.00;5026395;28;20025;-78
2022/12/25 13:08:27;;;;;;;11.45;7.53;;;;;;;8.27;100.00;100914.41;5026063;28;20037;-78
2022/12/25 13:11:17;;;;;;;8.93;6.53;;;;;;;8.29;100.00;100918.69;5025232;28;20025;-78
2022/12/25 13:13:45;;;;;;;8.07;5.72;;;;;;;8.29;100.00;100917.81;5025359;28;20032;-78
2022/12/25 13:16:54;;;;;;;12.95;8.52;;;;;;;8.30;100.00;100916.94;5026778;28;20172;-78
2022/12/25 13:19:22;;;;;;;10.63;8.05;;;;;;;8.31;100.00;100905.69;5022957;28;20519;-78